createdAt,value
2023-10-18T00:00:45.754Z,42.60
2023-10-18T00:03:12.847Z,33.00
2023-10-18T00:05:43.317Z,38.80
2023-10-18T00:08:11.035Z,43.20
2023-10-18T00:10:38.029Z,48.40
2023-10-18T00:13:04.919Z,37.80
2023-10-18T00:15:32.775Z,35.20
2023-10-18T00:17:59.710Z,38.20
2023-10-18T00:20:27.341Z,38.60
2023-10-18T00:22:55.848Z,41.20
2023-10-18T00:25:23.243Z,45.20
2023-10-18T00:27:50.875Z,41.20
2023-10-18T00:30:21.288Z,51.00
2023-10-18T00:32:48.554Z,34.00
2023-10-18T00:35:23.308Z,40.00
2023-10-18T00:37:56.780Z,42.60
2023-10-18T00:40:50.655Z,36.40
2023-10-18T00:43:21.683Z,37.80
2023-10-18T00:45:52.021Z,43.80
2023-10-18T00:48:28.607Z,39.80
2023-10-18T00:50:58.820Z,39.00
2023-10-18T00:53:32.312Z,40.60
2023-10-18T00:56:01.277Z,37.00
2023-10-18T00:58:33.197Z,43.60
2023-10-18T01:01:10.371Z,39.00
2023-10-18T01:03:52.840Z,44.60
2023-10-18T01:06:23.701Z,45.00
2023-10-18T01:08:51.780Z,40.60
2023-10-18T01:11:29.599Z,47.80
2023-10-18T01:13:57.357Z,37.00
2023-10-18T01:16:25.168Z,40.60
2023-10-18T01:18:57.276Z,40.20
2023-10-18T01:21:25.023Z,39.40
2023-10-18T01:23:54.850Z,37.20
2023-10-18T01:26:26.781Z,33.00
2023-10-18T01:28:55.685Z,39.60
2023-10-18T01:31:23.837Z,45.00
2023-10-18T01:33:52.757Z,39.00
2023-10-18T01:36:22.718Z,44.80
2023-10-18T01:38:54.279Z,39.00
2023-10-18T01:41:31.585Z,40.60
2023-10-18T01:44:11.737Z,42.60
2023-10-18T01:46:46.693Z,40.00
2023-10-18T01:49:22.718Z,38.60
2023-10-18T01:51:53.678Z,40.00
2023-10-18T01:54:21.772Z,36.00
2023-10-18T01:56:48.547Z,46.60
2023-10-18T01:59:19.081Z,47.60
2023-10-18T02:01:55.268Z,35.80
2023-10-18T02:04:36.385Z,37.00
2023-10-18T02:07:19.419Z,37.80
2023-10-18T02:09:51.591Z,41.40
2023-10-18T02:12:22.995Z,34.00
2023-10-18T02:14:51.530Z,30.20
2023-10-18T02:17:23.300Z,34.80
2023-10-18T02:19:50.706Z,36.00
2023-10-18T02:22:17.858Z,39.40
2023-10-18T02:24:45.014Z,38.00
2023-10-18T02:27:17.563Z,42.60
2023-10-18T02:29:46.420Z,40.00
2023-10-18T02:32:34.367Z,39.00
2023-10-18T02:35:06.031Z,45.00
2023-10-18T02:37:33.216Z,48.00
2023-10-18T02:40:09.549Z,39.00
2023-10-18T02:42:38.181Z,39.80
2023-10-18T02:45:15.361Z,40.00
2023-10-18T02:47:42.914Z,34.80
2023-10-18T02:50:10.085Z,39.00
2023-10-18T02:52:36.868Z,43.60
2023-10-18T02:55:04.509Z,34.60
2023-10-18T02:57:33.705Z,41.80
2023-10-18T03:00:11.664Z,37.20
2023-10-18T03:02:40.125Z,39.20
2023-10-18T03:05:08.238Z,36.40
2023-10-18T03:07:36.331Z,41.20
2023-10-18T03:10:12.830Z,43.40
2023-10-18T03:12:40.206Z,39.60
2023-10-18T03:15:12.959Z,42.00
2023-10-18T03:17:39.793Z,40.00
2023-10-18T03:20:23.643Z,45.40
2023-10-18T03:22:51.583Z,37.00
2023-10-18T03:25:18.626Z,42.60
2023-10-18T03:27:58.973Z,43.40
2023-10-18T03:30:42.040Z,42.00
2023-10-18T03:33:09.344Z,46.40
2023-10-18T03:35:41.044Z,39.80
2023-10-18T03:38:23.078Z,44.20
2023-10-18T03:40:57.750Z,39.00
2023-10-18T03:43:28.144Z,43.60
2023-10-18T03:46:14.079Z,41.40
2023-10-18T03:48:45.993Z,45.20
2023-10-18T03:51:21.649Z,39.80
2023-10-18T03:53:54.748Z,39.20
2023-10-18T03:56:23.495Z,48.40
2023-10-18T03:58:54.669Z,40.00
2023-10-18T04:01:23.203Z,40.00
2023-10-18T04:03:53.985Z,44.60
2023-10-18T04:06:24.844Z,48.00
2023-10-18T04:08:51.645Z,39.20
2023-10-18T04:11:25.804Z,40.00
2023-10-18T04:13:52.663Z,37.40
2023-10-18T04:16:20.132Z,34.80
2023-10-18T04:18:47.157Z,39.40
2023-10-18T04:21:16.544Z,36.60
2023-10-18T04:23:47.671Z,40.00
2023-10-18T04:26:19.809Z,51.60
2023-10-18T04:28:47.087Z,41.40
2023-10-18T04:31:16.120Z,44.00
2023-10-18T04:33:44.064Z,39.40
2023-10-18T04:36:14.053Z,37.80
2023-10-18T04:38:44.981Z,34.00
2023-10-18T04:41:25.693Z,38.20
2023-10-18T04:43:58.131Z,41.40
2023-10-18T04:46:28.553Z,40.00
2023-10-18T04:49:16.152Z,40.80
2023-10-18T04:52:03.755Z,37.80
2023-10-18T04:54:43.246Z,36.40
2023-10-18T04:57:13.579Z,37.80
2023-10-18T04:59:46.762Z,39.00
2023-10-18T05:02:27.007Z,40.00
2023-10-18T05:04:53.807Z,40.40
2023-10-18T05:07:21.235Z,45.60
2023-10-18T05:09:56.736Z,34.40
2023-10-18T05:12:46.799Z,36.60
2023-10-18T05:15:18.867Z,34.40
2023-10-18T05:17:46.345Z,38.60
2023-10-18T05:20:39.640Z,43.40
2023-10-18T05:23:07.050Z,42.60
2023-10-18T05:25:37.437Z,40.00
2023-10-18T05:28:11.488Z,39.00
2023-10-18T05:30:58.013Z,41.00
2023-10-18T05:34:00.215Z,43.20
2023-10-18T05:36:47.950Z,48.00
2023-10-18T05:59:50.872Z,44.20
2023-10-18T06:02:27.487Z,44.20
2023-10-18T06:04:59.463Z,46.20
2023-10-18T06:07:28.468Z,49.00
2023-10-18T06:10:16.159Z,44.00
2023-10-18T06:12:48.804Z,48.80
2023-10-18T06:15:18.218Z,43.00
2023-10-18T06:17:48.346Z,52.00
2023-10-18T06:20:48.327Z,49.00
2023-10-18T06:23:53.864Z,43.40
2023-10-18T06:26:30.522Z,46.40
2023-10-18T06:29:03.905Z,41.40
2023-10-18T06:31:31.824Z,44.60
2023-10-18T06:34:05.263Z,45.40
2023-10-18T06:36:35.406Z,42.60
2023-10-18T06:39:02.325Z,41.60
2023-10-18T06:41:32.411Z,42.60
2023-10-18T06:44:02.067Z,45.20
2023-10-18T06:46:30.120Z,42.00
2023-10-18T06:51:34.940Z,36.40
2023-10-18T06:54:04.731Z,43.40
2023-10-18T06:56:40.459Z,42.80
2023-10-18T06:59:08.621Z,44.20
2023-10-18T07:01:42.959Z,42.00
2023-10-18T07:04:20.037Z,43.40
2023-10-18T07:06:47.580Z,52.00
2023-10-18T07:09:26.251Z,44.20
2023-10-18T07:11:54.424Z,44.80
2023-10-18T07:14:25.947Z,45.40
2023-10-18T07:16:56.321Z,45.80
2023-10-18T07:19:28.400Z,48.60
2023-10-18T07:21:56.406Z,44.20
2023-10-18T07:24:26.190Z,42.60
2023-10-18T07:26:54.544Z,47.80
2023-10-18T07:29:22.478Z,40.00
2023-10-18T07:31:49.378Z,47.20
2023-10-18T07:34:19.367Z,44.60
2023-10-18T07:36:47.312Z,45.00
2023-10-18T07:39:17.985Z,43.80
2023-10-18T07:41:45.379Z,44.60
2023-10-18T07:44:12.282Z,50.40
2023-10-18T07:46:42.904Z,47.60
2023-10-18T07:49:15.825Z,45.00
2023-10-18T07:51:49.755Z,43.00
2023-10-18T07:54:19.215Z,45.60
2023-10-18T07:56:55.833Z,45.40
2023-10-18T07:59:31.901Z,48.20
2023-10-18T08:02:31.063Z,49.20
2023-10-18T08:05:02.042Z,45.80
2023-10-18T08:07:34.154Z,45.40
2023-10-18T08:10:08.051Z,48.00
2023-10-18T08:12:35.261Z,45.40
2023-10-18T08:15:05.340Z,46.20
2023-10-18T08:17:44.892Z,46.80
2023-10-18T08:20:45.876Z,45.00
2023-10-18T08:23:47.798Z,38.20
2023-10-18T08:26:14.497Z,47.40
2023-10-18T08:28:43.310Z,46.00
2023-10-18T08:31:36.778Z,46.00
2023-10-18T08:34:08.071Z,48.00
2023-10-18T08:36:35.079Z,46.40
2023-10-18T08:39:03.531Z,50.80
2023-10-18T08:41:35.352Z,49.00
2023-10-18T08:44:20.571Z,48.40
2023-10-18T08:47:08.781Z,48.00
2023-10-18T08:49:46.042Z,45.80
2023-10-18T08:52:13.252Z,45.00
2023-10-18T08:54:43.939Z,48.80
2023-10-18T08:57:12.279Z,45.00
2023-10-18T08:59:47.524Z,48.40
2023-10-18T09:02:23.130Z,50.80
2023-10-18T09:05:00.634Z,48.40
2023-10-18T09:07:46.289Z,50.80
2023-10-18T09:10:34.993Z,48.00
2023-10-18T09:13:30.266Z,49.00
2023-10-18T09:16:03.844Z,48.60
2023-10-18T09:18:35.701Z,49.00
2023-10-18T09:21:34.902Z,48.80
2023-10-18T09:24:01.639Z,47.80
2023-10-18T09:26:37.183Z,45.40
2023-10-18T09:29:04.213Z,48.20
2023-10-18T09:31:32.200Z,48.00
2023-10-18T09:34:09.252Z,47.60
2023-10-18T09:36:47.909Z,43.40
2023-10-18T09:39:16.103Z,47.60
2023-10-18T09:41:42.870Z,51.40
2023-10-18T09:44:10.484Z,48.60
2023-10-18T09:46:39.097Z,48.60
2023-10-18T09:49:11.033Z,53.00
2023-10-18T09:51:45.941Z,51.20
2023-10-18T09:54:14.368Z,48.20
2023-10-18T09:56:41.905Z,62.20
2023-10-18T09:59:17.807Z,48.40
2023-10-18T10:02:07.795Z,45.60
2023-10-18T10:04:37.129Z,48.60
2023-10-18T10:07:23.519Z,48.40
2023-10-18T10:09:51.989Z,50.20
2023-10-18T10:12:19.528Z,50.80
2023-10-18T10:14:47.420Z,51.80
2023-10-18T10:17:19.229Z,49.00
2023-10-18T10:19:51.636Z,48.40
2023-10-18T10:22:26.274Z,49.00
2023-10-18T10:25:06.467Z,46.80
2023-10-18T10:27:59.248Z,51.60
2023-10-18T10:30:36.294Z,48.60
2023-10-18T10:33:13.517Z,49.20
2023-10-18T10:35:48.091Z,49.80
2023-10-18T10:38:16.559Z,52.00
2023-10-18T10:40:49.932Z,49.40
2023-10-18T10:43:20.781Z,52.80
2023-10-18T10:46:12.827Z,49.80
2023-10-18T10:48:43.734Z,50.60
2023-10-18T10:51:34.646Z,48.00
2023-10-18T10:54:02.765Z,48.60
2023-10-18T10:56:52.682Z,46.60
2023-10-18T10:59:22.969Z,49.00
2023-10-18T11:30:24.236Z,39.60
2023-10-18T11:32:55.613Z,47.40
2023-10-18T11:35:47.063Z,59.40
2023-10-18T11:38:14.921Z,45.80
2023-10-18T11:40:45.673Z,48.00
2023-10-18T11:43:13.126Z,50.60
2023-10-18T11:45:41.443Z,45.00
2023-10-18T11:48:15.720Z,58.60
2023-10-18T11:50:52.358Z,49.00
2023-10-18T11:53:25.947Z,50.40
2023-10-18T11:56:03.206Z,55.60
2023-10-18T11:58:33.511Z,48.00
2023-10-18T12:01:18.187Z,49.00
2023-10-18T12:03:45.622Z,46.00
2023-10-18T12:06:15.644Z,48.00
2023-10-18T12:08:49.090Z,49.00
2023-10-18T12:11:16.069Z,48.40
2023-10-18T12:13:43.700Z,48.80
2023-10-18T12:16:10.676Z,49.00
2023-10-18T12:18:37.543Z,48.80
2023-10-18T12:21:06.899Z,47.20
2023-10-18T12:23:37.101Z,46.80
2023-10-18T12:26:07.766Z,49.80
2023-10-18T12:28:39.960Z,48.00
2023-10-18T12:31:18.273Z,48.00
2023-10-18T12:33:51.012Z,49.60
2023-10-18T12:36:24.316Z,46.80
2023-10-18T12:38:51.550Z,48.80
2023-10-18T12:41:28.931Z,65.00
2023-10-18T12:43:55.916Z,48.20
2023-10-18T12:46:23.917Z,46.80
2023-10-18T12:48:51.145Z,48.20
2023-10-18T12:51:19.084Z,51.00
2023-10-18T12:53:50.455Z,48.00
2023-10-18T12:56:49.805Z,46.00
2023-10-18T12:59:24.613Z,59.20
2023-10-18T13:01:51.802Z,48.20
2023-10-18T13:04:18.681Z,49.40
2023-10-18T13:06:47.206Z,49.00
2023-10-18T13:09:20.693Z,45.20
2023-10-18T13:12:13.077Z,51.00
2023-10-18T13:14:40.936Z,52.20
2023-10-18T13:17:12.398Z,48.20
2023-10-18T13:19:43.555Z,50.20
2023-10-18T13:22:18.778Z,46.00
2023-10-18T13:24:46.782Z,63.80
2023-10-18T13:27:16.999Z,46.80
2023-10-18T13:30:12.862Z,46.00
2023-10-18T13:32:41.772Z,48.20
2023-10-18T13:35:16.727Z,48.00
2023-10-18T13:37:44.849Z,45.00
2023-10-18T13:40:20.204Z,48.20
2023-10-18T13:42:47.802Z,48.40
2023-10-18T13:45:15.767Z,48.40
2023-10-18T13:47:42.962Z,46.40
2023-10-18T13:50:11.462Z,45.40
2023-10-18T13:52:42.614Z,49.00
2023-10-18T13:55:09.927Z,48.80
2023-10-18T13:57:36.745Z,51.60
2023-10-18T14:00:08.298Z,47.20
2023-10-18T14:02:38.984Z,49.80
2023-10-18T14:05:12.055Z,49.40
2023-10-18T14:07:38.842Z,45.00
2023-10-18T14:10:29.361Z,43.40
2023-10-18T14:12:56.785Z,45.80
2023-10-18T14:15:23.642Z,46.00
2023-10-18T14:17:56.936Z,49.80
2023-10-18T14:20:26.932Z,48.00
2023-10-18T14:22:57.792Z,48.60
2023-10-18T14:25:26.985Z,53.80
2023-10-18T14:27:54.393Z,48.20
2023-10-18T14:30:21.712Z,51.00
2023-10-18T14:32:48.645Z,49.00
2023-10-18T14:35:18.223Z,50.80
2023-10-18T14:37:47.153Z,54.00
2023-10-18T14:40:14.360Z,51.80
2023-10-18T14:42:41.147Z,50.00
2023-10-18T14:45:08.581Z,53.00
2023-10-18T14:47:39.604Z,49.20
2023-10-18T14:50:08.400Z,48.00
2023-10-18T14:52:35.257Z,52.00
2023-10-18T14:55:04.417Z,50.40
2023-10-18T14:57:31.320Z,51.80
2023-10-18T14:59:58.057Z,49.00
2023-10-18T15:02:25.013Z,49.00
2023-10-18T15:04:53.424Z,48.60
2023-10-18T15:07:20.208Z,48.80
2023-10-18T15:09:47.309Z,49.00
2023-10-18T15:12:17.300Z,48.00
2023-10-18T15:14:45.644Z,48.20
2023-10-18T15:17:12.621Z,51.00
2023-10-18T15:19:40.316Z,48.20
2023-10-18T15:22:07.104Z,46.80
2023-10-18T15:24:41.949Z,49.00
2023-10-18T15:27:14.416Z,51.00
2023-10-18T15:29:41.431Z,52.00
2023-10-18T15:32:09.334Z,49.00
2023-10-18T15:34:39.210Z,47.20
2023-10-18T15:37:07.796Z,45.00
2023-10-18T15:39:35.287Z,49.00
2023-10-18T15:42:02.214Z,52.60
2023-10-18T15:44:31.293Z,46.00
2023-10-18T15:47:01.538Z,41.20
2023-10-18T15:49:30.081Z,46.00
2023-10-18T15:51:58.556Z,49.40
2023-10-18T15:54:25.411Z,47.20
2023-10-18T15:56:52.813Z,49.40
2023-10-18T15:59:19.609Z,48.00
2023-10-18T16:01:58.304Z,48.20
2023-10-18T16:04:27.988Z,51.00
2023-10-18T16:06:57.255Z,46.80
2023-10-18T16:09:24.205Z,49.00
2023-10-18T16:11:50.972Z,49.80
2023-10-18T16:14:17.854Z,50.20
2023-10-18T16:16:44.845Z,49.00
2023-10-18T16:19:11.713Z,47.20
2023-10-18T16:21:39.271Z,50.20
2023-10-18T16:24:07.077Z,48.20
2023-10-18T16:26:34.505Z,56.80
2023-10-18T16:29:02.360Z,48.00
2023-10-18T16:31:31.456Z,50.80
2023-10-18T16:34:01.075Z,51.60
2023-10-18T16:36:28.221Z,48.00
2023-10-18T16:38:55.911Z,48.00
2023-10-18T16:41:22.932Z,48.20
2023-10-18T16:43:52.569Z,51.40
2023-10-18T16:46:22.252Z,48.60
2023-10-18T16:48:51.310Z,48.00
2023-10-18T16:51:18.950Z,51.40
2023-10-18T16:53:47.753Z,55.60
2023-10-18T16:56:15.985Z,48.00
2023-10-18T16:58:43.120Z,52.80
2023-10-18T17:01:13.978Z,49.00
2023-10-18T17:03:46.211Z,50.60
2023-10-18T17:06:14.971Z,48.40
2023-10-18T17:08:44.038Z,42.00
2023-10-18T17:11:16.550Z,49.80
2023-10-18T17:13:49.230Z,49.00
2023-10-18T17:16:18.828Z,48.80
2023-10-18T17:18:46.468Z,51.60
2023-10-18T17:23:45.318Z,49.00
2023-10-18T17:26:13.182Z,45.00
2023-10-18T17:28:40.462Z,52.00
2023-10-18T17:31:07.470Z,49.00
2023-10-18T17:33:34.459Z,47.20
2023-10-18T17:36:01.950Z,47.60
2023-10-18T17:38:28.849Z,45.00
2023-10-18T17:40:55.745Z,50.80
2023-10-18T17:43:23.638Z,48.20
2023-10-18T17:45:51.881Z,49.00
2023-10-18T17:48:19.775Z,49.40
2023-10-18T17:50:47.906Z,55.20
2023-10-18T17:53:15.428Z,48.40
2023-10-18T17:55:45.496Z,50.20
2023-10-18T17:58:18.757Z,51.20
2023-10-18T18:00:54.038Z,48.60
2023-10-18T18:03:24.221Z,48.00
2023-10-18T18:05:51.445Z,49.00
2023-10-18T18:08:27.041Z,48.00
2023-10-18T18:10:55.106Z,49.00
2023-10-18T18:13:23.583Z,45.00
2023-10-18T18:15:51.602Z,48.40
2023-10-18T18:18:25.650Z,39.00
2023-10-18T18:20:54.416Z,50.20
2023-10-18T18:23:21.317Z,53.20
2023-10-18T18:25:48.653Z,51.00
2023-10-18T18:28:16.012Z,49.00
2023-10-18T18:30:45.504Z,51.00
2023-10-18T18:33:13.586Z,50.00
2023-10-18T18:35:41.555Z,48.20
2023-10-18T18:38:09.256Z,48.00
2023-10-18T18:40:39.289Z,50.20
2023-10-18T18:43:06.094Z,51.20
2023-10-18T18:45:32.855Z,49.20
2023-10-18T18:47:59.908Z,48.20
2023-10-18T18:50:26.955Z,48.00
2023-10-18T18:52:53.899Z,49.20
2023-10-18T18:55:22.198Z,51.00
2023-10-18T18:57:51.638Z,49.80
2023-10-18T19:00:21.577Z,47.80
2023-10-18T19:02:50.359Z,49.20
2023-10-18T19:05:17.451Z,50.60
2023-10-18T19:07:44.748Z,48.00
2023-10-18T19:10:16.168Z,50.80
2023-10-18T19:12:44.103Z,46.00
2023-10-18T19:15:12.086Z,46.00
2023-10-18T19:17:42.699Z,50.60
2023-10-18T19:20:13.110Z,48.00
2023-10-18T19:22:40.677Z,48.00
2023-10-18T19:25:08.050Z,51.00
2023-10-18T19:27:36.435Z,50.20
2023-10-18T19:30:13.116Z,49.40
2023-10-18T19:32:40.843Z,48.40
2023-10-18T19:35:10.719Z,49.40
2023-10-18T19:37:38.903Z,48.20
2023-10-18T19:40:08.385Z,51.60
2023-10-18T19:42:35.720Z,48.40
2023-10-18T19:45:03.975Z,48.00
2023-10-18T19:47:31.869Z,50.00
2023-10-18T19:50:00.013Z,50.20
2023-10-18T19:52:28.539Z,46.00
2023-10-18T19:54:55.608Z,48.00
2023-10-18T19:57:22.711Z,47.60
2023-10-18T19:59:52.565Z,63.40
2023-10-18T20:02:20.363Z,49.00
2023-10-18T20:04:47.997Z,64.00
2023-10-18T20:07:17.025Z,48.80
2023-10-18T20:09:44.701Z,49.80
2023-10-18T20:12:12.041Z,53.00
2023-10-18T20:14:39.271Z,45.00
2023-10-18T20:17:07.082Z,49.00
2023-10-18T20:19:34.334Z,50.40
2023-10-18T20:22:01.545Z,49.00
2023-10-18T20:24:28.328Z,46.40
2023-10-18T20:26:55.175Z,55.00
2023-10-18T20:29:22.514Z,55.20
2023-10-18T20:31:49.672Z,48.00
2023-10-18T20:34:16.819Z,49.20
2023-10-18T20:36:44.483Z,51.20
2023-10-18T20:39:11.291Z,48.40
2023-10-18T20:41:39.881Z,48.60
2023-10-18T20:44:26.204Z,48.00
2023-10-18T20:46:53.991Z,49.00
2023-10-18T20:49:24.345Z,49.80
2023-10-18T20:51:53.177Z,52.00
2023-10-18T20:54:21.585Z,49.00
2023-10-18T20:56:55.027Z,49.00
2023-10-18T20:59:30.370Z,49.00
2023-10-18T21:02:04.154Z,50.40
2023-10-18T21:04:34.670Z,51.40
2023-10-18T21:07:01.643Z,48.00
2023-10-18T21:09:28.520Z,48.40
2023-10-18T21:11:55.967Z,48.00
2023-10-18T21:14:24.761Z,52.00
2023-10-18T21:16:53.151Z,51.60
2023-10-18T21:19:20.448Z,52.60
2023-10-18T21:21:49.059Z,48.80
2023-10-18T21:24:16.493Z,50.60
2023-10-18T21:26:43.306Z,51.80
2023-10-18T21:29:10.401Z,48.20
2023-10-18T21:31:38.717Z,51.00
2023-10-18T21:34:05.698Z,49.40
2023-10-18T21:36:33.488Z,48.80
2023-10-18T21:39:00.394Z,53.20
2023-10-18T21:41:27.305Z,49.00
2023-10-18T21:43:54.316Z,51.60
2023-10-18T21:46:21.225Z,52.00
2023-10-18T21:48:48.377Z,52.40
2023-10-18T21:51:16.641Z,47.00
2023-10-18T21:53:44.521Z,53.40
2023-10-18T21:56:15.620Z,48.00
2023-10-18T21:58:48.078Z,54.00
2023-10-18T22:01:34.501Z,52.80
2023-10-18T22:04:05.194Z,49.00
2023-10-18T22:06:35.398Z,55.60
2023-10-18T22:09:24.722Z,49.00
2023-10-18T22:11:52.927Z,49.80
2023-10-18T22:14:20.135Z,51.80
2023-10-18T22:16:55.373Z,52.80
2023-10-18T22:19:32.937Z,51.60
2023-10-18T22:22:13.454Z,51.60
2023-10-18T22:24:40.700Z,54.20
2023-10-18T22:27:14.661Z,51.40
2023-10-18T22:29:42.580Z,48.20
2023-10-18T22:34:43.464Z,56.40
2023-10-18T22:37:13.923Z,47.20
2023-10-18T22:39:45.490Z,48.00
2023-10-18T22:42:23.248Z,52.00
2023-10-18T22:45:09.545Z,56.80
2023-10-18T22:47:52.475Z,56.20
2023-10-18T22:50:39.284Z,54.40
2023-10-18T22:53:41.772Z,52.40
2023-10-18T22:56:11.941Z,49.40
2023-10-18T22:58:38.822Z,49.20
2023-10-18T23:01:10.498Z,52.20
2023-10-18T23:03:37.624Z,51.20
2023-10-18T23:06:11.863Z,46.80
2023-10-18T23:08:38.902Z,54.40
2023-10-18T23:11:28.861Z,47.20
2023-10-18T23:13:56.689Z,53.00
2023-10-18T23:16:55.266Z,51.80
2023-10-18T23:19:49.278Z,52.00
2023-10-18T23:22:35.983Z,52.00
2023-10-18T23:25:22.755Z,52.40
2023-10-18T23:28:08.064Z,54.60
2023-10-18T23:30:40.913Z,50.40
2023-10-18T23:33:46.090Z,51.00
2023-10-18T23:36:15.902Z,53.60
2023-10-18T23:38:44.846Z,49.40
2023-10-18T23:41:21.836Z,54.40
2023-10-18T23:43:50.946Z,55.60
2023-10-18T23:46:56.615Z,53.40
2023-10-18T23:49:47.517Z,51.20
2023-10-18T23:57:55.369Z,49.40
